Time;durP1;ratioP1;P1;durP2;ratioP2;P2;SDS_P1;SDS_P2;PMS_P1;PMS_P2;Temp;Humidity;BMP_temperature;BMP_pressure;BME280_temperature;BME280_humidity;BME280_pressure;Samples;Min_cycle;Max_cycle;Signal;HPM_P1;HPM_P2
2023/12/02 00:01:57;;;;;;;21.80;11.85;;;0.00;99.90;;;;;;5076219;28;20044;-36
2023/12/02 00:04:23;;;;;;;24.05;12.40;;;0.00;99.90;;;;;;5080449;28;20022;-37
2023/12/02 00:06:49;;;;;;;22.02;12.77;;;0.00;99.90;;;;;;5078726;28;20023;-39
2023/12/02 00:09:19;;;;;;;21.85;12.13;;;0.00;99.90;;;;;;5080902;28;20102;-35
2023/12/02 00:11:49;;;;;;;23.33;13.02;;;0.00;99.90;;;;;;5079025;28;20020;-36
2023/12/02 00:14:15;;;;;;;22.60;12.00;;;0.00;99.90;;;;;;5079340;28;20022;-37
2023/12/02 00:16:41;;;;;;;20.45;11.65;;;0.00;99.90;;;;;;5079366;28;20024;-35
2023/12/02 00:19:10;;;;;;;23.02;12.75;;;0.00;99.90;;;;;;5078684;28;20046;-36
2023/12/02 00:21:36;;;;;;;22.25;12.25;;;0.00;99.90;;;;;;5079387;28;20021;-37
2023/12/02 00:24:02;;;;;;;22.38;12.05;;;0.00;99.90;;;;;;5079323;28;20055;-36
2023/12/02 00:26:28;;;;;;;22.77;12.88;;;0.00;99.90;;;;;;5079545;28;20028;-36
2023/12/02 00:28:53;;;;;;;24.35;13.55;;;0.00;99.90;;;;;;5078699;28;20031;-37
2023/12/02 00:31:19;;;;;;;22.73;12.55;;;0.00;99.90;;;;;;5079649;28;20029;-37
2023/12/02 00:33:45;;;;;;;23.73;13.27;;;0.00;99.90;;;;;;5079748;28;20028;-37
2023/12/02 00:36:13;;;;;;;23.55;12.35;;;0.00;99.90;;;;;;5078542;28;20043;-36
2023/12/02 00:38:39;;;;;;;24.17;13.13;;;0.00;99.90;;;;;;5080557;28;20111;-37
2023/12/02 00:41:07;;;;;;;21.42;12.73;;;0.00;99.90;;;;;;5083440;28;20034;-37
2023/12/02 00:43:34;;;;;;;23.30;12.50;;;0.00;99.90;;;;;;5082347;28;20040;-37
2023/12/02 00:46:00;;;;;;;23.40;12.93;;;0.00;99.90;;;;;;5083240;28;20374;-36
2023/12/02 00:48:26;;;;;;;23.45;12.40;;;-0.10;99.90;;;;;;5083321;28;20557;-36
2023/12/02 00:50:51;;;;;;;21.92;12.25;;;-0.10;99.90;;;;;;5082143;28;20383;-37
2023/12/02 00:53:17;;;;;;;23.23;12.48;;;-0.10;99.90;;;;;;5083388;28;20875;-37
2023/12/02 00:55:42;;;;;;;21.30;12.27;;;-0.10;99.90;;;;;;5071007;28;20498;-35
2023/12/02 00:58:08;;;;;;;23.60;12.43;;;-0.10;99.90;;;;;;5063675;28;20510;-37
2023/12/02 01:00:34;;;;;;;21.23;11.07;;;-0.10;99.90;;;;;;5073227;28;20793;-37
2023/12/02 01:02:59;;;;;;;22.55;12.25;;;-0.20;99.90;;;;;;5063683;28;20109;-37
2023/12/02 01:05:25;;;;;;;19.63;11.40;;;-0.20;99.90;;;;;;5073635;28;20032;-36
2023/12/02 01:07:51;;;;;;;22.67;12.38;;;-0.20;99.90;;;;;;5062913;28;20361;-37
2023/12/02 01:10:18;;;;;;;19.95;11.80;;;-0.20;99.90;;;;;;5075227;28;20036;-37
2023/12/02 01:12:44;;;;;;;22.48;12.75;;;-0.20;99.90;;;;;;5062428;28;20055;-36
2023/12/02 01:15:09;;;;;;;22.92;12.43;;;-0.20;99.90;;;;;;5075342;28;20155;-37
2023/12/02 01:17:35;;;;;;;23.83;12.48;;;-0.30;99.90;;;;;;5061491;28;20039;-38
2023/12/02 01:20:00;;;;;;;25.45;13.45;;;-0.30;99.90;;;;;;5073571;28;20031;-37
2023/12/02 01:22:26;;;;;;;22.52;12.40;;;-0.30;99.90;;;;;;5063981;28;20409;-36
2023/12/02 01:24:51;;;;;;;22.77;12.55;;;-0.30;99.90;;;;;;5069390;28;20470;-37
2023/12/02 01:27:17;;;;;;;21.27;11.85;;;-0.20;99.90;;;;;;5066418;28;20082;-38
2023/12/02 01:29:44;;;;;;;21.27;11.55;;;-0.20;99.90;;;;;;5068355;28;20482;-37
2023/12/02 01:32:09;;;;;;;22.95;12.65;;;-0.20;99.90;;;;;;5068330;28;20025;-37
2023/12/02 01:34:35;;;;;;;19.10;10.52;;;-0.20;99.90;;;;;;5066801;28;20023;-36
2023/12/02 01:37:00;;;;;;;19.98;11.68;;;-0.20;99.90;;;;;;5071255;28;20471;-36
2023/12/02 01:39:26;;;;;;;23.40;12.60;;;-0.20;99.90;;;;;;5063819;28;20031;-38
2023/12/02 01:41:52;;;;;;;22.67;11.88;;;-0.20;99.90;;;;;;5072849;28;20116;-35
2023/12/02 01:44:19;;;;;;;20.45;10.95;;;-0.20;99.90;;;;;;5063880;28;20034;-36
2023/12/02 01:46:45;;;;;;;22.17;12.18;;;-0.10;99.90;;;;;;5072255;28;20068;-36
2023/12/02 01:49:11;;;;;;;23.23;12.63;;;-0.20;99.90;;;;;;5061570;28;20032;-36
2023/12/02 01:51:37;;;;;;;19.92;11.27;;;-0.10;99.90;;;;;;5073886;28;20032;-36
2023/12/02 01:54:04;;;;;;;22.20;12.65;;;-0.10;99.90;;;;;;5060802;28;20024;-37
2023/12/02 01:56:30;;;;;;;22.88;12.40;;;-0.10;99.90;;;;;;5080883;28;20581;-37
2023/12/02 01:58:57;;;;;;;20.90;11.88;;;-0.10;99.90;;;;;;5082254;28;20040;-36
2023/12/02 02:01:22;;;;;;;20.85;11.75;;;-0.10;99.90;;;;;;5081566;28;20032;-37
2023/12/02 02:03:49;;;;;;;23.40;12.68;;;-0.10;99.90;;;;;;5063614;28;20036;-38
2023/12/02 02:06:15;;;;;;;22.35;12.68;;;-0.10;99.90;;;;;;5082080;28;20047;-36
2023/12/02 02:08:41;;;;;;;22.83;11.75;;;-0.10;99.90;;;;;;5081206;28;20028;-36
2023/12/02 02:11:07;;;;;;;22.17;12.57;;;-0.10;99.90;;;;;;5081383;28;20024;-39
2023/12/02 02:13:33;;;;;;;22.35;12.68;;;-0.10;99.90;;;;;;5080907;28;20039;-37
2023/12/02 02:16:01;;;;;;;24.98;13.38;;;-0.10;99.90;;;;;;5081978;28;20026;-37
2023/12/02 02:18:29;;;;;;;21.38;11.40;;;-0.10;99.90;;;;;;5082404;28;20020;-38
2023/12/02 02:20:54;;;;;;;20.02;11.20;;;-0.10;99.90;;;;;;5081013;28;20020;-38
2023/12/02 02:23:22;;;;;;;23.77;12.50;;;-0.10;99.90;;;;;;5082199;28;20032;-46
2023/12/02 02:25:53;;;;;;;19.83;11.30;;;-0.10;99.90;;;;;;5063043;28;20037;-39
2023/12/02 02:28:22;;;;;;;23.90;12.75;;;-0.20;99.90;;;;;;5081404;28;20032;-37
2023/12/02 02:30:47;;;;;;;18.85;10.65;;;-0.10;99.90;;;;;;5081066;28;20063;-37
2023/12/02 02:33:13;;;;;;;19.73;11.02;;;-0.20;99.90;;;;;;5081633;28;20115;-38
2023/12/02 02:35:39;;;;;;;20.45;12.23;;;-0.20;99.90;;;;;;5081098;28;20020;-46
2023/12/02 02:38:05;;;;;;;19.70;11.50;;;-0.20;99.90;;;;;;5081520;28;20107;-37
2023/12/02 02:40:31;;;;;;;20.98;11.93;;;-0.20;99.90;;;;;;5063734;28;20035;-37
2023/12/02 02:42:57;;;;;;;21.05;11.88;;;-0.10;99.90;;;;;;5045204;28;20067;-38
2023/12/02 02:45:23;;;;;;;18.67;10.95;;;-0.10;99.90;;;;;;5080327;28;20124;-37
2023/12/02 02:47:49;;;;;;;21.98;11.77;;;-0.10;99.90;;;;;;5080306;28;20020;-37
2023/12/02 02:50:15;;;;;;;18.73;10.98;;;-0.10;99.90;;;;;;5080575;28;20027;-37
2023/12/02 02:52:42;;;;;;;20.58;11.73;;;-0.10;99.90;;;;;;5080146;28;20058;-37
2023/12/02 02:55:08;;;;;;;18.33;10.98;;;-0.10;99.90;;;;;;5080562;28;20800;-37
2023/12/02 02:57:34;;;;;;;20.67;11.73;;;-0.10;99.90;;;;;;5080489;28;20073;-37
2023/12/02 03:00:00;;;;;;;19.60;11.10;;;-0.10;99.90;;;;;;5080257;28;20093;-37
2023/12/02 03:02:25;;;;;;;21.30;11.68;;;-0.10;99.90;;;;;;5080392;28;20031;-37
2023/12/02 03:04:51;;;;;;;20.65;11.18;;;-0.10;99.90;;;;;;5079855;28;20035;-37
2023/12/02 03:07:18;;;;;;;20.45;11.77;;;-0.10;99.90;;;;;;5081115;28;20049;-37
2023/12/02 03:09:43;;;;;;;20.70;11.32;;;-0.10;99.90;;;;;;5079875;28;20386;-36
2023/12/02 03:12:10;;;;;;;20.55;11.60;;;-0.10;99.90;;;;;;5080883;28;20024;-35
2023/12/02 03:14:38;;;;;;;21.42;12.32;;;-0.10;99.90;;;;;;5081054;28;20480;-36
2023/12/02 03:17:03;;;;;;;21.77;11.55;;;-0.10;99.90;;;;;;5079822;28;20526;-37
2023/12/02 03:19:29;;;;;;;19.15;10.52;;;-0.10;99.90;;;;;;5080555;28;20027;-36
2023/12/02 03:21:54;;;;;;;21.55;12.25;;;-0.10;99.90;;;;;;5080050;28;20024;-36
2023/12/02 03:24:21;;;;;;;20.52;11.40;;;-0.10;99.90;;;;;;5079226;28;20126;-36
2023/12/02 03:26:46;;;;;;;21.30;11.65;;;-0.10;99.90;;;;;;5079841;28;20535;-36
2023/12/02 03:29:12;;;;;;;18.67;10.70;;;0.00;99.90;;;;;;5079317;28;20032;-36
2023/12/02 03:31:38;;;;;;;21.45;11.57;;;0.00;99.90;;;;;;5079222;28;20119;-37
2023/12/02 03:34:04;;;;;;;20.35;11.48;;;0.00;99.90;;;;;;5080198;28;20082;-37
2023/12/02 03:36:30;;;;;;;19.05;10.88;;;0.00;99.90;;;;;;5080296;28;20899;-35
2023/12/02 03:38:56;;;;;;;21.38;11.77;;;0.00;99.90;;;;;;5060352;28;20028;-36
2023/12/02 03:41:22;;;;;;;20.92;11.52;;;0.00;99.90;;;;;;5080593;28;20016;-38
2023/12/02 03:43:49;;;;;;;22.05;12.15;;;0.00;99.90;;;;;;5079598;28;20032;-41
2023/12/02 03:46:14;;;;;;;20.10;11.15;;;0.00;99.90;;;;;;5079652;28;20029;-37
2023/12/02 03:48:40;;;;;;;21.48;11.23;;;0.00;99.90;;;;;;5080712;28;20081;-38
2023/12/02 03:51:06;;;;;;;18.48;10.93;;;0.00;99.90;;;;;;5080661;28;20032;-37
2023/12/02 03:53:35;;;;;;;17.08;10.27;;;0.00;99.90;;;;;;5079751;28;20063;-36
2023/12/02 03:56:02;;;;;;;19.88;11.30;;;0.00;99.90;;;;;;5073339;28;20697;-36
2023/12/02 03:58:30;;;;;;;21.60;12.27;;;0.00;99.90;;;;;;5060581;28;20117;-36
2023/12/02 04:00:56;;;;;;;23.02;12.05;;;0.00;99.90;;;;;;5065604;28;20456;-36
2023/12/02 04:03:22;;;;;;;22.33;12.13;;;0.00;99.90;;;;;;5062133;28;20827;-36
2023/12/02 04:05:49;;;;;;;21.90;12.15;;;0.00;99.90;;;;;;5065844;28;20483;-37
2023/12/02 04:08:14;;;;;;;21.15;10.95;;;0.00;99.90;;;;;;5079801;28;20036;-36
2023/12/02 04:10:40;;;;;;;20.92;11.90;;;-0.10;99.90;;;;;;5056614;28;20031;-36
2023/12/02 04:13:05;;;;;;;20.35;11.77;;;0.00;99.90;;;;;;5062553;28;20033;-36
2023/12/02 04:15:31;;;;;;;20.60;10.60;;;-0.10;99.90;;;;;;5073567;28;20027;-37
2023/12/02 04:17:57;;;;;;;18.77;10.88;;;-0.10;99.90;;;;;;5067320;28;20035;-37
2023/12/02 04:20:24;;;;;;;20.55;11.55;;;-0.10;99.90;;;;;;5068895;28;20013;-39
2023/12/02 04:22:49;;;;;;;18.45;11.00;;;-0.10;99.90;;;;;;5077750;28;20427;-37
2023/12/02 04:25:16;;;;;;;19.85;11.68;;;-0.10;99.90;;;;;;5082610;28;20464;-37
2023/12/02 04:27:42;;;;;;;19.40;10.85;;;-0.20;99.90;;;;;;5083760;28;20112;-38
2023/12/02 04:30:08;;;;;;;18.73;11.15;;;-0.20;99.90;;;;;;5082390;28;20020;-37
2023/12/02 04:32:37;;;;;;;22.15;11.63;;;-0.20;99.90;;;;;;5072471;28;20050;-37
2023/12/02 04:35:05;;;;;;;18.85;10.68;;;-0.20;99.90;;;;;;5081871;28;20386;-36
2023/12/02 04:37:31;;;;;;;22.75;11.48;;;-0.20;99.90;;;;;;5065429;28;20028;-36
2023/12/02 04:39:56;;;;;;;21.20;12.48;;;-0.20;99.90;;;;;;5062884;28;20387;-37
2023/12/02 04:42:22;;;;;;;21.67;12.57;;;-0.20;99.90;;;;;;5056492;28;20043;-37
2023/12/02 04:44:49;;;;;;;22.23;11.88;;;-0.20;99.90;;;;;;5063167;28;20044;-37
2023/12/02 04:47:15;;;;;;;20.42;11.43;;;-0.20;99.90;;;;;;5069138;28;20099;-37
2023/12/02 04:49:41;;;;;;;18.08;10.60;;;-0.20;99.90;;;;;;5082364;28;20030;-37
2023/12/02 04:52:06;;;;;;;18.90;10.60;;;-0.30;99.90;;;;;;5070911;28;20105;-36
2023/12/02 04:54:34;;;;;;;19.48;11.13;;;-0.30;99.90;;;;;;5082693;28;20044;-36
2023/12/02 04:57:00;;;;;;;19.88;10.38;;;-0.30;99.90;;;;;;5080726;28;20449;-36
2023/12/02 04:59:25;;;;;;;20.67;11.32;;;-0.30;99.90;;;;;;5064478;28;20491;-39
2023/12/02 05:01:51;;;;;;;20.33;11.50;;;-0.20;99.90;;;;;;5069493;28;20101;-35
2023/12/02 05:04:17;;;;;;;17.40;10.35;;;-0.30;99.90;;;;;;5068292;28;20387;-36
2023/12/02 05:06:42;;;;;;;18.30;10.02;;;-0.30;99.90;;;;;;5067857;28;20031;-36
2023/12/02 05:09:11;;;;;;;19.40;10.55;;;-0.30;99.90;;;;;;5070879;28;20581;-36
2023/12/02 05:11:36;;;;;;;19.30;10.48;;;-0.30;99.90;;;;;;5064555;28;20024;-36
2023/12/02 05:14:02;;;;;;;19.23;10.65;;;-0.20;99.90;;;;;;5073059;28;20753;-37
2023/12/02 05:16:28;;;;;;;20.42;11.25;;;-0.20;99.90;;;;;;5063410;28;20024;-36
2023/12/02 05:18:53;;;;;;;17.73;10.27;;;-0.20;99.90;;;;;;5073001;28;20013;-35
2023/12/02 05:21:19;;;;;;;20.27;10.70;;;-0.20;99.90;;;;;;5063630;28;20055;-37
2023/12/02 05:23:45;;;;;;;19.25;10.82;;;-0.20;99.90;;;;;;5073213;28;20024;-36
2023/12/02 05:26:12;;;;;;;18.60;10.98;;;-0.20;99.90;;;;;;5060982;28;20098;-36
2023/12/02 05:28:38;;;;;;;18.85;11.05;;;-0.20;99.90;;;;;;5074856;28;20059;-37
2023/12/02 05:31:04;;;;;;;19.38;10.90;;;-0.20;99.90;;;;;;5061511;28;20613;-37
2023/12/02 05:33:33;;;;;;;19.63;11.55;;;-0.20;99.90;;;;;;5074678;28;20039;-37
2023/12/02 05:35:59;;;;;;;18.77;10.15;;;-0.10;99.90;;;;;;5061870;28;20128;-37
2023/12/02 05:38:24;;;;;;;19.40;10.80;;;-0.10;99.90;;;;;;5072416;28;20028;-35
2023/12/02 05:40:50;;;;;;;19.45;10.77;;;-0.10;99.90;;;;;;5082358;28;20024;-36
2023/12/02 05:43:16;;;;;;;18.25;10.23;;;-0.20;99.90;;;;;;5075508;28;20040;-35
2023/12/02 05:45:41;;;;;;;20.73;11.23;;;-0.10;99.90;;;;;;5057738;28;20020;-37
2023/12/02 05:48:07;;;;;;;20.80;12.40;;;-0.10;99.90;;;;;;5077835;28;20020;-36
2023/12/02 05:50:32;;;;;;;23.02;12.15;;;-0.10;99.90;;;;;;5074625;28;20115;-36
2023/12/02 05:52:58;;;;;;;19.75;10.65;;;-0.10;99.90;;;;;;5078655;28;20522;-36
2023/12/02 05:55:26;;;;;;;18.40;10.07;;;-0.10;99.90;;;;;;5072016;28;20063;-37
2023/12/02 05:57:52;;;;;;;21.13;10.90;;;-0.10;99.90;;;;;;5081480;28;20027;-42
2023/12/02 06:00:19;;;;;;;22.63;12.07;;;-0.10;99.90;;;;;;5081847;28;20127;-37
2023/12/02 06:02:44;;;;;;;21.00;11.60;;;-0.10;99.90;;;;;;5081086;28;20830;-36
2023/12/02 06:05:10;;;;;;;20.52;10.95;;;-0.10;99.90;;;;;;5081488;28;20028;-36
2023/12/02 06:07:36;;;;;;;20.25;11.15;;;-0.10;99.90;;;;;;5081400;28;20195;-37
2023/12/02 06:10:01;;;;;;;19.75;11.20;;;-0.10;99.90;;;;;;5080464;28;20035;-36
2023/12/02 06:12:27;;;;;;;21.38;12.40;;;-0.10;99.90;;;;;;5081764;28;20028;-37
2023/12/02 06:14:53;;;;;;;21.52;11.68;;;0.00;99.90;;;;;;5078724;28;20020;-35
2023/12/02 06:17:21;;;;;;;20.75;11.90;;;0.00;99.90;;;;;;5080883;28;20035;-38
2023/12/02 06:19:47;;;;;;;22.20;12.55;;;0.00;99.90;;;;;;5080002;28;20020;-37
2023/12/02 06:22:13;;;;;;;22.48;11.98;;;0.00;99.90;;;;;;5080703;28;20768;-37
2023/12/02 06:24:39;;;;;;;17.95;10.80;;;0.00;99.90;;;;;;5080400;28;20023;-37
2023/12/02 06:27:05;;;;;;;20.95;11.02;;;-0.10;99.90;;;;;;5079500;28;20024;-36
2023/12/02 06:29:31;;;;;;;23.15;11.32;;;-0.10;99.90;;;;;;5079661;28;20046;-38
2023/12/02 06:31:57;;;;;;;21.23;12.75;;;-0.10;99.90;;;;;;5080336;28;20016;-36
2023/12/02 06:34:22;;;;;;;20.90;11.40;;;-0.10;99.90;;;;;;5079944;28;20684;-36
2023/12/02 06:36:48;;;;;;;21.60;12.43;;;-0.10;99.90;;;;;;5061778;28;20019;-35
2023/12/02 06:39:14;;;;;;;23.08;12.77;;;-0.20;99.90;;;;;;5080976;28;20020;-37
2023/12/02 06:41:41;;;;;;;20.73;12.02;;;-0.10;99.90;;;;;;5079228;28;20058;-37
2023/12/02 06:44:07;;;;;;;20.90;11.18;;;-0.20;99.90;;;;;;5080420;28;20103;-36
2023/12/02 06:46:34;;;;;;;20.67;11.45;;;-0.20;99.90;;;;;;5080065;28;20115;-38
2023/12/02 06:49:00;;;;;;;21.27;12.27;;;-0.20;99.90;;;;;;5079019;28;20024;-36
2023/12/02 06:51:29;;;;;;;20.95;11.82;;;-0.30;99.90;;;;;;5080362;28;20055;-36
2023/12/02 06:53:55;;;;;;;20.92;11.43;;;-0.30;99.90;;;;;;5061852;28;20506;-38
2023/12/02 06:56:23;;;;;;;22.73;12.18;;;-0.30;99.90;;;;;;5079739;28;20824;-36
2023/12/02 06:58:49;;;;;;;21.77;12.43;;;-0.30;99.90;;;;;;5079792;28;20913;-39
2023/12/02 07:01:29;;;;;;;18.95;10.20;;;-0.20;99.90;;;;;;5078867;28;20044;-38
2023/12/02 07:03:56;;;;;;;21.48;12.45;;;-0.20;99.90;;;;;;5078172;28;20040;-36
2023/12/02 07:06:22;;;;;;;21.08;11.75;;;-0.20;99.90;;;;;;5079213;28;20024;-36
2023/12/02 07:08:49;;;;;;;18.08;10.77;;;-0.10;99.90;;;;;;5079461;28;20071;-37
2023/12/02 07:11:15;;;;;;;19.23;11.02;;;-0.10;99.90;;;;;;5079949;28;20027;-37
2023/12/02 07:13:41;;;;;;;18.02;10.68;;;-0.10;99.90;;;;;;5079260;28;20548;-36
2023/12/02 07:16:07;;;;;;;17.73;9.88;;;-0.10;99.90;;;;;;5078936;28;20024;-37
2023/12/02 07:18:33;;;;;;;19.08;10.88;;;-0.10;99.90;;;;;;5080288;28;20031;-36
2023/12/02 07:20:58;;;;;;;18.33;10.50;;;-0.10;99.90;;;;;;5079348;28;20023;-36
2023/12/02 07:23:31;;;;;;;18.48;10.38;;;-0.10;99.90;;;;;;5079937;28;20031;-37
2023/12/02 07:25:57;;;;;;;17.38;10.57;;;-0.10;99.90;;;;;;5079763;28;20035;-37
2023/12/02 07:28:23;;;;;;;18.75;10.52;;;-0.10;99.90;;;;;;5081143;28;20114;-37
2023/12/02 07:30:52;;;;;;;21.55;11.25;;;-0.20;99.90;;;;;;5078334;28;20036;-38
2023/12/02 07:33:20;;;;;;;19.00;11.25;;;-0.20;99.90;;;;;;5080162;28;20140;-36
2023/12/02 07:35:46;;;;;;;18.13;10.30;;;-0.20;99.90;;;;;;5078799;28;20471;-37
2023/12/02 07:38:12;;;;;;;20.27;12.00;;;-0.20;99.90;;;;;;5078637;28;20024;-36
2023/12/02 07:40:37;;;;;;;17.45;10.98;;;-0.10;99.90;;;;;;5080343;28;20433;-37
2023/12/02 07:43:03;;;;;;;20.75;11.13;;;-0.10;99.90;;;;;;5078235;28;20544;-37
2023/12/02 07:45:29;;;;;;;18.05;10.77;;;-0.10;99.90;;;;;;5078669;28;20111;-40
2023/12/02 07:47:54;;;;;;;15.80;9.82;;;-0.10;99.90;;;;;;5078598;28;20465;-36
2023/12/02 07:50:21;;;;;;;18.60;11.05;;;-0.10;99.90;;;;;;5060932;28;20043;-37
2023/12/02 07:52:47;;;;;;;16.83;10.43;;;-0.10;99.90;;;;;;5078034;28;20462;-37
2023/12/02 07:55:13;;;;;;;17.13;10.63;;;-0.10;99.90;;;;;;5078660;28;20052;-37
2023/12/02 07:57:39;;;;;;;19.52;10.68;;;-0.10;99.90;;;;;;5078948;28;20016;-38
2023/12/02 08:00:07;;;;;;;18.63;10.07;;;-0.10;99.90;;;;;;5078490;28;20214;-38
2023/12/02 08:02:33;;;;;;;18.38;10.98;;;-0.20;99.90;;;;;;5079488;28;20488;-37
2023/12/02 08:04:59;;;;;;;20.13;11.30;;;-0.20;99.90;;;;;;5078815;28;20061;-36
2023/12/02 08:07:25;;;;;;;19.17;11.32;;;-0.20;99.90;;;;;;5079147;28;20539;-38
2023/12/02 08:09:50;;;;;;;15.88;10.00;;;-0.20;99.90;;;;;;5078656;28;20506;-37
2023/12/02 08:12:16;;;;;;;19.30;11.10;;;-0.20;99.90;;;;;;5079242;28;20150;-38
2023/12/02 08:14:41;;;;;;;21.17;11.40;;;-0.20;99.90;;;;;;5077928;28;20118;-36
2023/12/02 08:17:07;;;;;;;18.02;11.35;;;-0.30;99.90;;;;;;5060736;28;20028;-38
2023/12/02 08:19:33;;;;;;;19.77;11.65;;;-0.30;99.90;;;;;;5077917;28;20031;-37
2023/12/02 08:21:59;;;;;;;20.25;11.50;;;-0.30;99.90;;;;;;5078334;28;20378;-37
2023/12/02 08:24:25;;;;;;;19.20;11.43;;;-0.20;99.90;;;;;;5078598;28;20036;-38
2023/12/02 08:26:50;;;;;;;20.83;11.88;;;-0.20;99.90;;;;;;5078017;28;20051;-36
2023/12/02 08:29:16;;;;;;;17.88;10.38;;;-0.20;99.90;;;;;;5079220;28;20071;-37
2023/12/02 08:31:42;;;;;;;17.27;10.68;;;-0.20;99.90;;;;;;5078110;28;20045;-37
2023/12/02 08:34:07;;;;;;;16.45;9.60;;;-0.10;99.90;;;;;;5078143;28;20070;-37
2023/12/02 08:36:33;;;;;;;18.42;10.63;;;-0.10;99.90;;;;;;5079924;28;20032;-37
2023/12/02 08:38:58;;;;;;;19.40;11.23;;;-0.10;99.90;;;;;;5078795;28;20108;-37
2023/12/02 08:41:24;;;;;;;19.80;12.43;;;0.00;99.90;;;;;;5079687;28;20024;-37
2023/12/02 08:43:50;;;;;;;16.13;9.85;;;0.00;99.90;;;;;;5077998;28;20036;-37
2023/12/02 08:46:18;;;;;;;19.13;10.85;;;0.10;99.90;;;;;;5079384;28;20024;-36
2023/12/02 08:48:45;;;;;;;17.40;10.52;;;0.10;99.90;;;;;;5078771;28;20771;-38
2023/12/02 08:51:10;;;;;;;18.85;11.77;;;0.20;99.90;;;;;;5079503;28;20024;-36
2023/12/02 08:53:36;;;;;;;19.38;11.18;;;0.20;99.90;;;;;;5079424;28;20036;-36
2023/12/02 08:56:02;;;;;;;20.95;12.77;;;0.20;99.90;;;;;;5078002;28;20503;-37
2023/12/02 08:58:27;;;;;;;20.52;12.20;;;0.20;99.90;;;;;;5079374;28;20032;-36
2023/12/02 09:00:53;;;;;;;19.38;11.88;;;0.30;99.90;;;;;;5082784;28;20026;-37
2023/12/02 09:03:18;;;;;;;21.23;11.98;;;0.30;99.90;;;;;;5082990;28;20136;-38
2023/12/02 09:05:44;;;;;;;22.05;12.32;;;0.30;99.90;;;;;;5082804;28;20364;-37
2023/12/02 09:08:10;;;;;;;21.88;12.80;;;0.30;99.90;;;;;;5082637;28;20858;-37
2023/12/02 09:10:37;;;;;;;19.15;11.88;;;0.30;99.90;;;;;;5082731;28;20028;-37
2023/12/02 09:13:33;;;;;;;21.40;12.52;;;0.30;99.90;;;;;;5082368;28;20150;-37
2023/12/02 09:16:02;;;;;;;26.48;14.68;;;0.40;99.90;;;;;;5064924;28;20287;-39
2023/12/02 09:18:35;;;;;;;24.42;14.40;;;0.40;99.90;;;;;;5064347;28;20032;-39
2023/12/02 09:21:02;;;;;;;25.60;14.35;;;0.30;99.90;;;;;;5078233;28;20099;-37
2023/12/02 09:23:29;;;;;;;26.88;15.48;;;0.30;99.90;;;;;;5082111;28;20050;-37
2023/12/02 09:26:03;;;;;;;28.85;15.50;;;0.30;99.90;;;;;;5082550;28;20027;-37
2023/12/02 09:28:29;;;;;;;23.05;13.43;;;0.30;99.90;;;;;;5082996;28;20024;-37
2023/12/02 09:31:00;;;;;;;22.35;13.25;;;0.30;99.90;;;;;;5081466;28;20393;-37
2023/12/02 09:33:27;;;;;;;22.02;13.02;;;0.30;99.90;;;;;;5082708;28;20914;-38
2023/12/02 09:35:56;;;;;;;24.20;12.73;;;0.30;99.90;;;;;;5082760;28;20085;-36
2023/12/02 09:38:22;;;;;;;23.92;13.13;;;0.30;99.90;;;;;;5082418;28;20027;-38
2023/12/02 09:40:59;;;;;;;21.23;11.77;;;0.30;99.90;;;;;;5082417;28;20020;-37
2023/12/02 09:43:47;;;;;;;22.00;11.82;;;0.30;99.90;;;;;;5083311;28;20036;-37
2023/12/02 09:46:37;;;;;;;22.35;12.85;;;0.30;99.90;;;;;;5082085;28;20114;-37
2023/12/02 09:49:23;;;;;;;24.58;13.45;;;0.30;99.90;;;;;;5081609;28;20111;-37
2023/12/02 09:52:09;;;;;;;27.08;14.23;;;0.30;99.90;;;;;;5081236;28;20040;-38
2023/12/02 09:54:49;;;;;;;24.13;13.07;;;0.30;99.90;;;;;;5040637;28;20403;-37
2023/12/02 09:57:33;;;;;;;25.42;13.77;;;0.40;99.90;;;;;;5082106;28;20035;-38
2023/12/02 10:00:15;;;;;;;25.23;14.30;;;0.40;99.90;;;;;;5060971;28;20067;-41
2023/12/02 10:03:07;;;;;;;24.10;13.68;;;0.40;99.90;;;;;;5079146;28;20028;-38
2023/12/02 10:05:52;;;;;;;21.88;13.15;;;0.50;99.90;;;;;;5081998;28;20111;-38
2023/12/02 10:08:38;;;;;;;24.73;13.98;;;0.60;99.90;;;;;;5063527;28;20032;-37
2023/12/02 10:11:07;;;;;;;24.33;13.88;;;0.60;99.90;;;;;;5080992;28;20031;-37
2023/12/02 10:13:52;;;;;;;24.65;13.48;;;0.70;99.90;;;;;;5078225;28;20465;-39
2023/12/02 10:16:20;;;;;;;21.30;12.10;;;0.70;99.90;;;;;;5082510;28;20032;-38
2023/12/02 10:18:51;;;;;;;24.45;13.48;;;0.70;99.90;;;;;;5081857;28;20027;-51
2023/12/02 10:21:19;;;;;;;23.02;13.20;;;0.80;99.90;;;;;;5082596;28;20036;-37
2023/12/02 10:24:02;;;;;;;25.15;14.25;;;0.90;99.90;;;;;;5080804;28;20117;-39
2023/12/02 10:26:32;;;;;;;24.25;13.98;;;0.90;99.90;;;;;;5081714;28;20020;-39
2023/12/02 10:29:20;;;;;;;23.83;13.85;;;0.90;99.90;;;;;;5080999;28;20035;-38
2023/12/02 10:31:58;;;;;;;26.92;16.08;;;0.90;99.90;;;;;;5081076;28;20119;-45
2023/12/02 10:34:39;;;;;;;24.23;14.95;;;1.00;99.90;;;;;;5077913;28;20024;-37
2023/12/02 10:37:06;;;;;;;29.70;16.67;;;1.00;99.90;;;;;;5081028;28;20101;-38
2023/12/02 10:39:43;;;;;;;26.42;15.68;;;1.00;99.90;;;;;;5080597;28;20020;-39
2023/12/02 10:42:17;;;;;;;30.35;17.02;;;1.00;99.90;;;;;;5080148;28;20058;-38
2023/12/02 10:44:44;;;;;;;30.45;16.27;;;1.00;99.90;;;;;;5078366;28;20034;-38
2023/12/02 10:47:11;;;;;;;28.27;15.60;;;1.10;99.90;;;;;;5080377;28;20031;-38
2023/12/02 10:49:38;;;;;;;28.40;16.50;;;1.10;99.90;;;;;;5080798;28;20020;-40
2023/12/02 10:52:07;;;;;;;32.85;17.15;;;1.10;99.90;;;;;;5081531;28;20043;-38
2023/12/02 10:54:37;;;;;;;31.02;15.85;;;1.10;99.90;;;;;;5079687;28;20363;-37
2023/12/02 10:57:07;;;;;;;29.50;17.67;;;1.10;99.90;;;;;;5080385;28;20111;-40
2023/12/02 10:59:48;;;;;;;32.78;17.85;;;1.00;99.90;;;;;;5080978;28;20150;-37
2023/12/02 11:02:31;;;;;;;32.17;17.25;;;1.00;99.90;;;;;;5081161;28;20031;-38
2023/12/02 11:05:14;;;;;;;31.77;16.98;;;1.00;99.90;;;;;;5080850;28;20120;-37
2023/12/02 11:07:49;;;;;;;35.55;19.63;;;1.00;99.90;;;;;;5080322;28;20477;-38
2023/12/02 11:10:21;;;;;;;28.65;16.33;;;1.10;99.90;;;;;;5079555;28;20103;-39
2023/12/02 11:12:52;;;;;;;31.95;17.27;;;1.10;99.90;;;;;;5080737;28;20036;-37
2023/12/02 11:15:22;;;;;;;27.25;15.23;;;1.20;99.90;;;;;;5079732;28;20023;-40
2023/12/02 11:17:59;;;;;;;26.10;15.63;;;1.20;99.90;;;;;;5080454;28;20081;-38
2023/12/02 11:20:57;;;;;;;29.70;15.90;;;1.20;99.90;;;;;;5080563;28;20047;-39
2023/12/02 11:23:31;;;;;;;25.73;14.85;;;1.20;99.90;;;;;;5062170;28;20056;-38
2023/12/02 11:26:28;;;;;;;30.48;16.48;;;1.30;99.90;;;;;;5080105;28;20060;-38
2023/12/02 11:29:13;;;;;;;23.15;13.40;;;1.30;99.90;;;;;;5080426;28;20471;-37
2023/12/02 11:32:16;;;;;;;26.35;15.57;;;1.40;99.90;;;;;;5080737;28;20023;-37
2023/12/02 11:34:55;;;;;;;29.40;16.65;;;1.40;99.90;;;;;;5079513;28;20062;-37
2023/12/02 11:37:26;;;;;;;30.52;17.05;;;1.50;99.90;;;;;;5079494;28;20032;-38
2023/12/02 11:40:24;;;;;;;27.13;15.40;;;1.50;99.90;;;;;;5079543;28;20462;-39
2023/12/02 11:43:24;;;;;;;27.85;16.23;;;1.60;99.90;;;;;;5072861;28;20040;-38
2023/12/02 11:46:02;;;;;;;28.83;15.93;;;1.60;99.90;;;;;;5080014;28;20023;-38
2023/12/02 11:48:41;;;;;;;29.23;16.05;;;1.70;99.90;;;;;;5059408;28;20488;-38
2023/12/02 11:51:25;;;;;;;30.27;16.10;;;1.70;99.90;;;;;;5074625;28;20059;-38
2023/12/02 11:54:12;;;;;;;29.60;16.00;;;1.70;99.90;;;;;;5058856;28;20029;-37
2023/12/02 11:56:43;;;;;;;29.50;16.33;;;1.80;99.90;;;;;;5058494;28;20170;-38
2023/12/02 11:59:19;;;;;;;34.95;18.85;;;1.80;99.90;;;;;;5058620;28;20364;-38
2023/12/02 12:02:09;;;;;;;25.92;14.48;;;1.80;99.90;;;;;;5059509;28;20063;-38
2023/12/02 12:05:07;;;;;;;27.15;15.02;;;1.90;99.90;;;;;;5059459;28;20067;-38
2023/12/02 12:08:23;;;;;;;23.40;13.18;;;1.90;99.90;;;;;;5058311;28;20475;-38
2023/12/02 12:10:53;;;;;;;23.35;12.75;;;2.00;99.90;;;;;;5054256;28;20036;-37
2023/12/02 12:13:21;;;;;;;23.88;13.68;;;2.00;99.90;;;;;;5059260;28;20028;-38
2023/12/02 12:15:47;;;;;;;21.52;13.50;;;2.10;99.90;;;;;;5059754;28;20032;-37
2023/12/02 12:18:13;;;;;;;24.65;13.50;;;2.10;99.90;;;;;;5059209;28;20024;-38
2023/12/02 12:20:42;;;;;;;25.08;14.27;;;2.10;99.90;;;;;;5059671;28;20086;-38
2023/12/02 12:23:08;;;;;;;26.90;14.60;;;2.10;99.90;;;;;;5059206;28;20032;-37
2023/12/02 12:25:35;;;;;;;28.38;16.38;;;2.10;99.90;;;;;;5059366;28;20433;-38
2023/12/02 12:28:05;;;;;;;29.35;15.73;;;2.10;99.90;;;;;;5059339;28;20020;-38
2023/12/02 12:30:50;;;;;;;28.88;16.77;;;2.10;99.90;;;;;;5060359;28;20086;-38
2023/12/02 12:33:20;;;;;;;28.45;15.65;;;2.10;99.90;;;;;;5059485;28;20067;-38
2023/12/02 12:35:47;;;;;;;27.75;15.02;;;2.10;99.90;;;;;;5063136;28;20543;-36
2023/12/02 12:38:14;;;;;;;29.63;16.02;;;2.10;99.90;;;;;;5063248;28;20490;-37
2023/12/02 12:40:43;;;;;;;28.48;16.48;;;2.20;99.90;;;;;;5063222;28;20021;-37